Aristides Batista, Brazil
Current Conditions -  °F | °C
As of 12:00 PM on Thursday 23 Oct 2014 (Local Time) from SBMK Reporting Station
Few Clouds Few Clouds  
Wind Chill: 82°   Ceiling: Unl
Heat Index: 82°   Visibility: 6mi
Dew Point: 55°   Wind: 9mph
Humidity: 39%   Direction: 100°E
Pressure: 30.12"   Gusts: NA
Location:  16.59°S, 44.13°W
Report Text: SBMK 231400Z 10008KT 050V150 9999 FEW035 28/13 Q1020
Loading
Personal Weather Stations






























Interactive Weather Map
Tropical Storm Tracking
New forecast layout! Learn more

10-Day Weather Forecast

Advertisements
Track Severe Weather on mobile